Time;durP1;ratioP1;P1;durP2;ratioP2;P2;SDS_P1;SDS_P2;PMS_P1;PMS_P2;Temp;Humidity;BMP_temperature;BMP_pressure;BME280_temperature;BME280_humidity;BME280_pressure;Samples;Min_cycle;Max_cycle;Signal;HPM_P1;HPM_P2
2023/05/10 00:00:56;;;;;;;3.80;0.60;;;14.30;7.70;;;;;;4971451;28;20427;-55
2023/05/10 00:03:22;;;;;;;3.60;0.47;;;14.20;3.20;;;;;;4972078;28;20802;-55
2023/05/10 00:05:48;;;;;;;3.60;0.55;;;14.00;1.00;;;;;;4971647;28;20412;-55
2023/05/10 00:08:13;;;;;;;3.40;0.50;;;13.90;1.00;;;;;;4971658;28;20407;-55
2023/05/10 00:10:40;;;;;;;3.50;0.40;;;13.90;7.70;;;;;;4971828;28;20388;-56
2023/05/10 00:13:06;;;;;;;3.40;0.40;;;15.40;8.00;;;;;;4972113;28;20392;-55
2023/05/10 00:15:32;;;;;;;3.72;0.52;;;13.80;12.50;;;;;;4972439;28;20392;-55
2023/05/10 00:17:57;;;;;;;5.10;0.40;;;13.90;8.50;;;;;;4971587;28;20469;-55
2023/05/10 00:20:23;;;;;;;3.60;0.50;;;13.90;11.80;;;;;;4972070;28;20809;-55
2023/05/10 00:22:48;;;;;;;3.50;0.50;;;13.80;3.30;;;;;;4971324;28;20392;-56
2023/05/10 00:25:14;;;;;;;3.47;0.40;;;13.80;17.20;;;;;;4971450;28;20409;-56
2023/05/10 00:27:40;;;;;;;3.40;0.40;;;13.70;5.60;;;;;;4970642;28;20494;-55
2023/05/10 00:30:06;;;;;;;3.40;0.40;;;13.70;15.10;;;;;;4971925;28;20774;-55
2023/05/10 00:32:32;;;;;;;3.33;0.30;;;13.60;3.90;;;;;;4971675;28;20471;-55
2023/05/10 00:34:57;;;;;;;3.90;0.50;;;13.50;10.70;;;;;;4970806;28;20535;-55
2023/05/10 00:37:23;;;;;;;3.40;0.50;;;13.60;15.20;;;;;;4971446;28;20397;-55
2023/05/10 00:39:49;;;;;;;3.50;0.50;;;13.60;20.60;;;;;;4970783;28;20476;-55
2023/05/10 00:42:14;;;;;;;3.50;0.50;;;13.60;23.60;;;;;;4971512;28;20396;-55
2023/05/10 00:44:40;;;;;;;3.50;0.40;;;13.50;30.40;;;;;;4971164;28;20388;-55
2023/05/10 00:47:06;;;;;;;3.60;0.60;;;13.50;22.60;;;;;;4971491;28;20458;-55
2023/05/10 00:49:32;;;;;;;4.30;0.52;;;13.60;27.90;;;;;;4971219;28;20400;-55
2023/05/10 00:51:58;;;;;;;4.10;0.60;;;13.50;42.50;;;;;;4970721;28;21193;-55
2023/05/10 00:54:24;;;;;;;3.60;0.50;;;13.60;37.80;;;;;;4970927;28;20407;-55
2023/05/10 00:56:49;;;;;;;4.10;0.60;;;13.50;46.70;;;;;;4970887;28;20387;-56
2023/05/10 00:59:17;;;;;;;4.60;0.50;;;13.50;38.00;;;;;;4971663;28;20485;-56
2023/05/10 01:01:44;;;;;;;3.63;0.50;;;13.40;44.80;;;;;;4970667;28;20479;-56
2023/05/10 01:04:12;;;;;;;4.40;0.70;;;13.40;40.10;;;;;;4971191;28;20384;-55
2023/05/10 01:06:39;;;;;;;3.63;0.60;;;13.40;38.70;;;;;;4970696;28;20407;-55
2023/05/10 01:09:06;;;;;;;3.50;0.50;;;13.40;46.50;;;;;;4970754;28;20380;-55
2023/05/10 01:11:37;;;;;;;3.70;0.87;;;13.50;43.10;;;;;;4971164;28;20384;-55
2023/05/10 01:14:03;;;;;;;3.80;0.80;;;13.50;32.60;;;;;;4971086;28;20941;-55
2023/05/10 01:16:38;;;;;;;3.60;0.60;;;13.50;12.90;;;;;;4971255;28;20380;-55
2023/05/10 01:19:08;;;;;;;4.15;0.82;;;13.50;20.70;;;;;;4970821;28;20532;-55
2023/05/10 01:21:38;;;;;;;3.80;0.70;;;13.40;16.30;;;;;;4971072;28;20396;-55
2023/05/10 01:24:18;;;;;;;7.20;1.30;;;13.60;9.90;;;;;;4971001;28;20402;-55
2023/05/10 01:27:14;;;;;;;4.00;0.80;;;13.60;1.00;;;;;;4970173;28;20419;-55
2023/05/10 01:30:34;;;;;;;3.95;0.90;;;13.50;5.30;;;;;;4970935;28;20427;-55
2023/05/10 01:33:18;;;;;;;4.00;0.93;;;13.50;10.40;;;;;;4910797;29;20492;-55
2023/05/10 01:35:56;;;;;;;4.30;1.00;;;13.50;1.00;;;;;;4970496;28;20434;-55
2023/05/10 01:38:40;;;;;;;4.10;1.02;;;13.50;1.80;;;;;;4971063;28;20388;-55
2023/05/10 01:41:08;;;;;;;3.85;0.70;;;13.50;9.10;;;;;;4970871;28;20552;-55
2023/05/10 01:43:57;;;;;;;4.22;0.85;;;13.40;4.90;;;;;;4970768;28;20893;-55
2023/05/10 01:46:48;;;;;;;4.20;1.00;;;13.30;9.40;;;;;;4958144;28;20411;-55
2023/05/10 01:49:30;;;;;;;4.53;1.00;;;13.40;16.80;;;;;;4971051;28;20400;-55
2023/05/10 01:52:06;;;;;;;4.10;1.05;;;13.40;12.20;;;;;;4970088;28;20395;-55
2023/05/10 01:54:33;;;;;;;4.03;1.00;;;13.40;7.70;;;;;;4970752;28;20871;-55
2023/05/10 01:57:06;;;;;;;4.17;0.90;;;13.50;1.00;;;;;;4969794;28;21064;-55
2023/05/10 01:59:40;;;;;;;4.03;0.90;;;13.50;1.00;;;;;;4970646;28;20422;-55
2023/05/10 02:02:08;;;;;;;4.20;1.08;;;13.40;2.10;;;;;;4971037;28;20499;-55
2023/05/10 02:04:37;;;;;;;4.80;1.20;;;13.40;13.10;;;;;;4970793;28;20479;-55
2023/05/10 02:07:04;;;;;;;4.70;1.10;;;13.40;9.10;;;;;;4972307;28;20457;-55
2023/05/10 02:09:33;;;;;;;4.78;1.40;;;13.30;12.50;;;;;;4974930;28;20404;-55
2023/05/10 02:12:02;;;;;;;4.20;1.20;;;13.30;22.00;;;;;;4973548;28;20376;-55
2023/05/10 02:14:30;;;;;;;4.20;1.10;;;13.40;17.20;;;;;;4974276;28;20400;-55
2023/05/10 02:16:58;;;;;;;4.60;1.40;;;13.20;32.00;;;;;;4973741;28;20479;-55
2023/05/10 02:19:24;;;;;;;4.20;1.20;;;13.20;24.20;;;;;;4974655;28;20387;-55
2023/05/10 02:21:51;;;;;;;3.90;1.20;;;13.20;17.00;;;;;;4973321;28;20428;-55
2023/05/10 02:24:18;;;;;;;4.50;1.50;;;13.10;20.80;;;;;;4973659;28;20400;-55
2023/05/10 02:26:47;;;;;;;4.40;1.10;;;13.30;27.90;;;;;;4973511;28;20512;-55
2023/05/10 02:29:14;;;;;;;4.30;1.17;;;13.30;11.60;;;;;;4973839;28;20411;-55
2023/05/10 02:31:43;;;;;;;5.33;1.30;;;13.40;1.00;;;;;;4973533;28;20384;-55
2023/05/10 02:34:11;;;;;;;4.80;1.50;;;13.30;10.30;;;;;;4974082;28;20381;-55
2023/05/10 02:36:39;;;;;;;4.45;1.10;;;13.30;12.40;;;;;;4973737;28;20396;-55
2023/05/10 02:39:09;;;;;;;5.80;1.50;;;13.30;9.10;;;;;;4973689;28;20410;-55
2023/05/10 02:41:36;;;;;;;4.22;1.30;;;13.30;14.80;;;;;;4973751;28;20381;-55
2023/05/10 02:44:03;;;;;;;4.45;1.33;;;13.40;8.70;;;;;;4973033;28;20446;-55
2023/05/10 02:46:29;;;;;;;4.50;1.20;;;13.40;4.90;;;;;;4973110;28;20718;-55
2023/05/10 02:48:55;;;;;;;4.63;1.50;;;13.30;23.50;;;;;;4972295;28;20817;-55
2023/05/10 02:51:26;;;;;;;4.40;1.40;;;13.30;17.20;;;;;;4973737;28;20467;-55
2023/05/10 02:53:55;;;;;;;4.70;1.43;;;13.40;19.30;;;;;;4972966;28;20467;-55
2023/05/10 02:56:28;;;;;;;6.80;1.42;;;13.40;3.10;;;;;;4973652;28;20381;-55
2023/05/10 02:58:54;;;;;;;4.30;1.30;;;13.40;1.00;;;;;;4972531;28;20396;-55
2023/05/10 03:01:21;;;;;;;6.30;1.50;;;13.40;18.10;;;;;;4956264;28;20385;-55
2023/05/10 03:03:46;;;;;;;5.47;1.80;;;13.40;11.80;;;;;;4972139;28;20762;-55
2023/05/10 03:06:12;;;;;;;5.63;1.60;;;13.50;1.10;;;;;;4973370;28;20523;-55
2023/05/10 03:08:38;;;;;;;5.10;1.70;;;13.50;1.00;;;;;;4973264;28;20388;-55
2023/05/10 03:11:20;;;;;;;7.00;2.53;;;13.50;1.00;;;;;;4972459;28;20579;-55
2023/05/10 03:14:07;;;;;;;5.00;1.70;;;13.50;1.00;;;;;;4972302;28;20410;-55
2023/05/10 03:16:41;;;;;;;5.20;1.73;;;13.50;1.00;;;;;;4972618;28;20810;-55
2023/05/10 03:19:27;;;;;;;5.65;2.38;;;13.40;1.00;;;;;;4973243;28;20384;-55
2023/05/10 03:21:55;;;;;;;5.70;1.98;;;13.40;15.80;;;;;;4972213;28;20388;-55
2023/05/10 03:24:23;;;;;;;5.88;1.90;;;13.50;1.00;;;;;;4973186;28;20383;-55
2023/05/10 03:26:50;;;;;;;6.38;1.80;;;13.40;1.00;;;;;;4972124;28;20515;-55
2023/05/10 03:29:17;;;;;;;5.40;1.95;;;13.40;1.00;;;;;;4972860;28;20462;-55
2023/05/10 03:31:42;;;;;;;5.78;2.00;;;13.50;1.00;;;;;;4972274;28;20741;-55
2023/05/10 03:34:08;;;;;;;6.00;2.10;;;13.60;1.00;;;;;;4972494;28;20482;-55
2023/05/10 03:36:34;;;;;;;5.40;1.97;;;13.60;1.00;;;;;;4972709;28;20495;-55
2023/05/10 03:38:59;;;;;;;7.10;2.30;;;13.50;1.30;;;;;;4971966;28;20399;-55
2023/05/10 03:41:25;;;;;;;6.50;2.70;;;13.70;1.00;;;;;;4972202;28;20885;-55
2023/05/10 03:43:51;;;;;;;6.45;2.20;;;13.60;1.00;;;;;;4971656;28;20443;-55
2023/05/10 03:46:17;;;;;;;6.00;2.37;;;13.70;1.00;;;;;;4971406;28;20459;-55
2023/05/10 03:48:42;;;;;;;6.80;2.63;;;13.70;1.00;;;;;;4971920;28;20388;-55
2023/05/10 03:51:08;;;;;;;5.80;2.50;;;13.60;1.00;;;;;;4972416;28;20785;-55
2023/05/10 03:53:34;;;;;;;7.73;2.60;;;13.50;1.00;;;;;;4971055;28;20886;-55
2023/05/10 03:55:59;;;;;;;8.18;2.65;;;13.70;1.00;;;;;;4971517;28;20894;-55
2023/05/10 03:58:25;;;;;;;6.40;2.77;;;13.60;1.00;;;;;;4972576;28;20392;-55
2023/05/10 04:00:51;;;;;;;6.97;2.00;;;13.70;3.50;;;;;;4971743;28;20389;-55
2023/05/10 04:03:17;;;;;;;7.00;2.13;;;13.70;1.00;;;;;;4972186;28;20388;-55
2023/05/10 04:05:43;;;;;;;6.20;2.63;;;13.80;1.00;;;;;;4971684;28;20417;-55
2023/05/10 04:08:08;;;;;;;6.70;2.80;;;13.70;1.00;;;;;;4972357;28;20395;-55
2023/05/10 04:10:34;;;;;;;5.25;1.83;;;13.80;1.00;;;;;;4971937;28;20431;-55
2023/05/10 04:13:00;;;;;;;6.93;2.70;;;13.70;1.00;;;;;;4971340;28;20514;-55
2023/05/10 04:15:26;;;;;;;6.57;2.38;;;13.70;1.00;;;;;;4972166;28;20388;-55
2023/05/10 04:17:52;;;;;;;6.77;2.20;;;13.70;1.00;;;;;;4971169;28;20411;-55
2023/05/10 04:20:17;;;;;;;5.68;2.20;;;13.70;1.00;;;;;;4971708;28;20384;-55
2023/05/10 04:22:43;;;;;;;7.70;2.17;;;13.60;1.00;;;;;;4971019;28;20385;-56
2023/05/10 04:25:09;;;;;;;5.78;2.20;;;13.60;1.00;;;;;;4971519;28;20423;-55
2023/05/10 04:27:34;;;;;;;5.32;1.90;;;13.70;1.00;;;;;;4971711;28;20431;-55
2023/05/10 04:30:00;;;;;;;5.28;1.90;;;13.70;1.00;;;;;;4957469;28;20862;-55
2023/05/10 04:32:26;;;;;;;5.30;1.80;;;13.80;1.00;;;;;;4952326;29;20531;-55
2023/05/10 04:34:51;;;;;;;7.50;2.00;;;13.80;1.00;;;;;;4951422;29;20395;-55
2023/05/10 04:37:17;;;;;;;5.30;1.80;;;13.80;1.00;;;;;;4952291;29;20390;-55
2023/05/10 04:39:43;;;;;;;5.38;2.00;;;13.70;1.00;;;;;;4951440;29;20408;-55
2023/05/10 04:42:09;;;;;;;5.00;1.60;;;13.60;1.00;;;;;;4951757;29;20390;-55
2023/05/10 04:44:36;;;;;;;6.85;1.90;;;13.60;1.00;;;;;;4951860;29;20386;-55
2023/05/10 04:47:02;;;;;;;5.18;1.83;;;13.60;1.00;;;;;;4951083;29;20406;-55
2023/05/10 04:49:29;;;;;;;5.80;2.17;;;13.60;1.00;;;;;;4952238;29;20401;-55
2023/05/10 04:51:55;;;;;;;6.93;2.10;;;13.70;1.00;;;;;;4951314;29;20401;-55
2023/05/10 04:54:20;;;;;;;6.70;2.10;;;13.90;1.00;;;;;;4951746;29;20382;-55
2023/05/10 04:56:46;;;;;;;7.87;2.27;;;13.60;1.00;;;;;;4951224;29;20429;-55
2023/05/10 04:59:11;;;;;;;6.45;2.38;;;13.60;1.00;;;;;;4951758;29;20386;-55
2023/05/10 05:01:37;;;;;;;5.53;2.00;;;13.70;1.00;;;;;;4952271;29;20389;-55
2023/05/10 05:04:03;;;;;;;7.17;2.10;;;13.60;1.00;;;;;;4951545;29;20866;-55
2023/05/10 05:06:28;;;;;;;5.65;1.90;;;13.80;1.00;;;;;;4951743;29;20413;-55
2023/05/10 05:08:54;;;;;;;6.03;2.10;;;13.60;1.00;;;;;;4951153;29;20421;-55
2023/05/10 05:11:20;;;;;;;6.53;2.27;;;13.90;1.00;;;;;;4952330;29;20437;-55
2023/05/10 05:13:46;;;;;;;5.75;2.00;;;14.10;1.00;;;;;;4951002;29;20383;-56
2023/05/10 05:16:12;;;;;;;6.22;2.30;;;14.20;1.00;;;;;;4951681;29;20437;-55
2023/05/10 05:18:37;;;;;;;6.60;2.20;;;14.20;1.00;;;;;;4951592;29;20800;-55
2023/05/10 05:21:03;;;;;;;6.43;2.40;;;14.30;1.00;;;;;;4951291;29;20461;-56
2023/05/10 05:23:28;;;;;;;5.53;1.92;;;14.50;1.00;;;;;;4951615;29;20392;-55
2023/05/10 05:25:55;;;;;;;6.00;2.40;;;14.50;1.00;;;;;;4951100;29;20450;-55
2023/05/10 05:28:20;;;;;;;5.13;1.63;;;14.60;1.00;;;;;;4951089;29;20413;-55
2023/05/10 05:30:46;;;;;;;6.23;1.93;;;14.70;1.00;;;;;;4969637;28;20404;-56
2023/05/10 05:33:13;;;;;;;7.00;2.53;;;14.80;1.00;;;;;;4971036;28;20380;-55
2023/05/10 05:35:39;;;;;;;5.63;2.05;;;14.70;1.00;;;;;;4966564;28;20412;-55
2023/05/10 05:38:05;;;;;;;5.70;2.07;;;14.70;1.00;;;;;;4956498;28;21090;-55
2023/05/10 05:40:31;;;;;;;5.55;1.70;;;14.60;1.00;;;;;;4972482;28;20495;-55
2023/05/10 05:42:57;;;;;;;5.90;2.20;;;14.50;1.00;;;;;;4973981;28;20460;-55
2023/05/10 05:45:22;;;;;;;5.40;1.92;;;14.50;1.00;;;;;;4970982;28;20527;-55
2023/05/10 05:47:48;;;;;;;6.00;2.17;;;14.60;1.00;;;;;;4972530;28;20459;-55
2023/05/10 05:50:13;;;;;;;6.93;2.23;;;14.70;1.00;;;;;;4973910;28;21271;-55
2023/05/10 05:52:39;;;;;;;5.90;2.20;;;14.60;1.00;;;;;;4973351;28;20870;-55
2023/05/10 05:55:05;;;;;;;6.25;2.22;;;14.60;1.00;;;;;;4972973;28;20384;-55
2023/05/10 05:57:31;;;;;;;6.60;2.30;;;14.70;1.00;;;;;;4973751;28;20403;-55
2023/05/10 05:59:57;;;;;;;7.40;2.20;;;14.80;1.00;;;;;;4970831;28;20508;-55
2023/05/10 06:02:22;;;;;;;6.77;2.33;;;14.90;1.00;;;;;;4955202;28;20893;-55
2023/05/10 06:04:48;;;;;;;6.22;2.20;;;15.10;1.00;;;;;;4966505;28;20829;-55
2023/05/10 06:07:13;;;;;;;7.57;2.50;;;15.00;1.00;;;;;;4971167;28;20778;-55
2023/05/10 06:09:39;;;;;;;5.90;2.20;;;15.00;1.00;;;;;;4966238;28;20408;-55
2023/05/10 06:12:05;;;;;;;5.60;1.90;;;15.20;1.00;;;;;;4972135;28;20976;-55
2023/05/10 06:14:30;;;;;;;6.22;2.10;;;15.00;1.00;;;;;;4972679;28;20433;-55
2023/05/10 06:16:56;;;;;;;8.00;2.47;;;15.10;1.00;;;;;;4973011;28;20412;-55
2023/05/10 06:19:21;;;;;;;5.93;2.45;;;15.20;1.00;;;;;;4973547;28;20390;-55
2023/05/10 06:21:47;;;;;;;5.18;1.70;;;15.00;1.00;;;;;;4967677;28;20947;-55
2023/05/10 06:24:13;;;;;;;6.33;2.40;;;14.70;1.00;;;;;;4962285;28;20741;-55
2023/05/10 06:26:38;;;;;;;6.13;2.30;;;14.70;1.00;;;;;;4972685;28;20411;-55
2023/05/10 06:29:04;;;;;;;7.60;2.17;;;14.80;1.00;;;;;;4973085;28;21044;-55
2023/05/10 06:31:30;;;;;;;5.85;1.85;;;14.90;1.00;;;;;;4970690;28;20409;-55
2023/05/10 06:33:56;;;;;;;8.38;2.53;;;14.70;1.00;;;;;;4958861;28;20894;-55
2023/05/10 06:36:21;;;;;;;5.73;1.90;;;14.80;1.00;;;;;;4970347;28;20408;-55
2023/05/10 06:38:48;;;;;;;8.30;2.20;;;14.90;1.00;;;;;;4972351;28;20944;-56
2023/05/10 06:41:14;;;;;;;5.82;2.03;;;15.00;1.00;;;;;;4972593;28;20459;-55
2023/05/10 06:43:41;;;;;;;7.00;1.80;;;15.10;1.00;;;;;;4972773;28;20393;-55
2023/05/10 06:46:07;;;;;;;5.60;2.20;;;15.30;1.00;;;;;;4972393;28;20404;-55
2023/05/10 06:48:32;;;;;;;5.50;1.90;;;15.40;1.00;;;;;;4973117;28;20399;-55
2023/05/10 06:50:58;;;;;;;7.15;2.35;;;15.30;1.00;;;;;;4972205;28;20876;-55
2023/05/10 06:53:24;;;;;;;5.50;1.80;;;15.40;1.00;;;;;;4973023;28;20384;-55
2023/05/10 06:55:49;;;;;;;6.70;1.97;;;15.60;99.90;;;;;;4972146;28;20451;-55
2023/05/10 06:58:15;;;;;;;5.80;1.80;;;16.00;99.90;;;;;;4973550;28;20494;-55
2023/05/10 07:00:43;;;;;;;6.07;1.50;;;16.20;99.90;;;;;;4973244;28;20396;-55
2023/05/10 07:03:09;;;;;;;5.60;1.60;;;16.30;1.00;;;;;;4973354;28;20409;-55
2023/05/10 07:05:35;;;;;;;6.03;1.95;;;16.30;1.00;;;;;;4972844;28;20412;-55
2023/05/10 07:08:01;;;;;;;5.80;1.50;;;16.30;1.00;;;;;;4972321;28;20391;-55
2023/05/10 07:10:27;;;;;;;8.35;2.50;;;16.00;1.00;;;;;;4972686;28;20428;-55
2023/05/10 07:12:52;;;;;;;5.80;1.90;;;16.20;60.20;;;;;;4971745;28;20383;-55
2023/05/10 07:15:18;;;;;;;5.40;1.70;;;16.40;1.00;;;;;;4953304;29;20890;-55
2023/05/10 07:17:44;;;;;;;6.30;1.70;;;16.50;99.90;;;;;;4953343;29;20484;-55
2023/05/10 07:20:10;;;;;;;5.53;1.70;;;16.40;99.90;;;;;;4954070;29;20847;-55
2023/05/10 07:22:35;;;;;;;5.45;1.60;;;16.50;1.00;;;;;;4953704;29;20420;-55
2023/05/10 07:25:02;;;;;;;4.90;1.40;;;16.30;99.90;;;;;;4952724;29;20809;-55
2023/05/10 07:27:28;;;;;;;4.95;1.40;;;16.20;1.00;;;;;;4953399;29;20938;-55
2023/05/10 07:29:54;;;;;;;4.60;1.25;;;16.30;99.90;;;;;;4952053;29;20438;-55
2023/05/10 07:32:21;;;;;;;5.68;1.45;;;16.30;99.90;;;;;;4953507;29;20792;-55
2023/05/10 07:34:46;;;;;;;5.95;1.63;;;16.50;4.50;;;;;;4953002;29;20389;-55
2023/05/10 07:37:12;;;;;;;5.00;1.20;;;16.80;1.00;;;;;;4953093;29;20401;-55
2023/05/10 07:39:37;;;;;;;5.00;1.30;;;17.00;99.90;;;;;;4952983;29;20860;-55
2023/05/10 07:42:03;;;;;;;6.60;1.30;;;16.70;27.60;;;;;;4952350;29;20394;-55
2023/05/10 07:44:29;;;;;;;4.75;0.95;;;16.70;99.90;;;;;;4952724;29;20887;-55
2023/05/10 07:46:55;;;;;;;6.90;1.40;;;16.50;99.90;;;;;;4952321;29;20444;-55
2023/05/10 07:49:21;;;;;;;5.20;1.20;;;16.40;99.90;;;;;;4952929;29;20386;-55
2023/05/10 07:51:47;;;;;;;4.70;1.00;;;16.40;1.00;;;;;;4952118;29;20724;-55
2023/05/10 07:54:13;;;;;;;4.97;1.10;;;16.20;1.00;;;;;;4953265;29;20394;-55
2023/05/10 07:56:40;;;;;;;4.60;0.90;;;16.00;99.90;;;;;;4952585;29;20484;-55
2023/05/10 07:59:08;;;;;;;4.60;1.10;;;16.00;1.00;;;;;;4951715;29;21106;-55
2023/05/10 08:01:34;;;;;;;4.60;0.90;;;16.10;1.00;;;;;;4953130;29;20413;-55
2023/05/10 08:04:01;;;;;;;4.45;0.85;;;16.10;1.00;;;;;;4951098;28;20421;-55
2023/05/10 08:06:29;;;;;;;9.68;1.30;;;15.90;1.00;;;;;;4952332;29;20779;-55
2023/05/10 08:08:55;;;;;;;8.35;1.30;;;16.10;99.90;;;;;;4951592;29;20505;-55
2023/05/10 08:11:21;;;;;;;5.13;1.00;;;16.00;1.00;;;;;;4952623;29;20477;-55
2023/05/10 08:13:47;;;;;;;5.10;1.00;;;16.00;1.00;;;;;;4959638;28;20418;-55
2023/05/10 08:16:13;;;;;;;5.65;1.20;;;16.10;1.00;;;;;;4971776;28;20380;-55
2023/05/10 08:18:39;;;;;;;5.03;1.15;;;16.00;1.00;;;;;;4972059;28;20719;-55
2023/05/10 08:21:05;;;;;;;4.40;0.90;;;16.10;1.00;;;;;;4970899;28;20435;-55
2023/05/10 08:23:31;;;;;;;5.18;1.05;;;16.20;94.60;;;;;;4971676;28;20400;-55
2023/05/10 08:25:56;;;;;;;5.90;1.30;;;16.20;1.00;;;;;;4970756;28;20466;-55
2023/05/10 08:28:22;;;;;;;8.50;1.00;;;16.20;1.00;;;;;;4971353;28;20419;-55
2023/05/10 08:30:49;;;;;;;4.10;0.60;;;16.30;1.00;;;;;;4970678;28;20413;-56
2023/05/10 08:33:15;;;;;;;4.70;0.80;;;16.20;99.90;;;;;;4971744;28;20392;-56
2023/05/10 08:35:41;;;;;;;4.73;0.90;;;16.10;99.90;;;;;;4971473;28;20443;-56
2023/05/10 08:38:07;;;;;;;4.38;0.90;;;16.10;78.50;;;;;;4970640;28;20538;-56
2023/05/10 08:40:32;;;;;;;6.20;0.90;;;16.00;99.90;;;;;;4971375;28;20818;-55
2023/05/10 08:43:10;;;;;;;4.78;0.90;;;16.00;14.30;;;;;;4953867;28;20404;-55
2023/05/10 08:45:47;;;;;;;5.22;1.02;;;15.90;1.00;;;;;;4971224;28;20416;-55
2023/05/10 08:48:14;;;;;;;4.18;0.57;;;16.00;99.90;;;;;;4970904;28;20866;-55
2023/05/10 08:50:41;;;;;;;4.28;0.60;;;15.90;5.90;;;;;;4971244;28;20872;-55
2023/05/10 08:53:11;;;;;;;5.07;0.88;;;15.90;99.90;;;;;;4970213;28;20384;-56
2023/05/10 08:55:38;;;;;;;5.65;0.80;;;16.30;99.90;;;;;;4971374;28;20384;-55
2023/05/10 08:58:05;;;;;;;4.30;0.70;;;16.50;1.00;;;;;;4969872;28;20396;-56
2023/05/10 09:00:31;;;;;;;6.70;0.60;;;16.60;1.00;;;;;;4971104;28;20420;-55
2023/05/10 09:02:58;;;;;;;4.28;0.60;;;16.30;99.90;;;;;;4952951;28;20404;-55
2023/05/10 09:05:24;;;;;;;5.07;1.00;;;16.10;99.90;;;;;;4970897;28;20431;-55
2023/05/10 09:07:50;;;;;;;5.03;0.90;;;16.30;1.00;;;;;;4970392;28;20747;-56
2023/05/10 09:10:16;;;;;;;5.80;0.60;;;16.90;1.00;;;;;;4970992;28;20392;-56
2023/05/10 09:12:43;;;;;;;4.40;0.88;;;17.00;99.90;;;;;;4970939;28;20448;-56
2023/05/10 09:15:10;;;;;;;4.60;0.90;;;17.20;99.90;;;;;;4951226;28;21279;-56
2023/05/10 09:17:37;;;;;;;4.40;0.73;;;15.90;99.90;;;;;;4951271;29;20955;-56
2023/05/10 09:20:04;;;;;;;5.40;0.80;;;17.20;99.90;;;;;;4950953;29;20876;-56
2023/05/10 09:22:33;;;;;;;5.18;0.82;;;16.90;99.90;;;;;;4951590;29;20483;-56
2023/05/10 09:25:13;;;;;;;4.90;0.90;;;17.10;99.90;;;;;;4950391;29;20765;-56
2023/05/10 09:27:40;;;;;;;4.40;0.70;;;17.20;99.90;;;;;;4933966;29;20759;-56
2023/05/10 09:30:07;;;;;;;4.20;0.80;;;17.10;99.90;;;;;;4950299;29;20426;-56
2023/05/10 09:32:45;;;;;;;4.20;0.80;;;17.00;99.90;;;;;;4950900;29;20390;-56
2023/05/10 09:35:14;;;;;;;4.90;0.88;;;17.20;99.90;;;;;;4950761;29;20427;-56
2023/05/10 09:37:41;;;;;;;4.40;0.80;;;17.40;99.90;;;;;;4951432;29;20405;-56
2023/05/10 09:40:08;;;;;;;4.70;0.70;;;17.40;99.90;;;;;;4934080;29;20511;-56
2023/05/10 09:42:34;;;;;;;5.10;1.00;;;17.30;97.90;;;;;;4950722;29;20397;-55
2023/05/10 09:45:09;;;;;;;4.40;0.70;;;17.40;99.90;;;;;;4950526;29;20864;-56
2023/05/10 09:47:35;;;;;;;4.65;0.80;;;17.40;99.90;;;;;;4951524;29;20414;-56
2023/05/10 09:50:03;;;;;;;4.82;0.80;;;17.50;99.90;;;;;;4950306;29;20392;-56
2023/05/10 09:52:30;;;;;;;4.90;0.90;;;17.50;99.90;;;;;;4950824;29;20914;-56
2023/05/10 09:54:56;;;;;;;5.00;0.90;;;17.30;99.90;;;;;;4951259;29;20889;-56
2023/05/10 09:57:23;;;;;;;6.43;0.90;;;16.80;99.90;;;;;;4951174;29;20433;-55
2023/05/10 09:59:49;;;;;;;4.90;1.00;;;16.60;99.90;;;;;;4950762;29;20386;-56
2023/05/10 10:02:15;;;;;;;5.80;0.90;;;16.70;99.90;;;;;;4950764;29;20492;-56
2023/05/10 10:04:41;;;;;;;5.00;0.70;;;17.00;99.90;;;;;;4950642;29;20488;-56
2023/05/10 10:07:07;;;;;;;4.90;0.95;;;15.90;99.90;;;;;;4950031;29;20457;-56
2023/05/10 10:09:34;;;;;;;5.03;1.00;;;17.30;99.90;;;;;;4951380;29;20476;-55
2023/05/10 10:12:00;;;;;;;5.45;1.13;;;17.20;99.90;;;;;;4950230;29;20398;-56
2023/05/10 10:14:26;;;;;;;4.50;1.10;;;17.10;99.90;;;;;;4957780;28;20406;-56
2023/05/10 10:16:52;;;;;;;4.80;1.00;;;16.90;99.90;;;;;;4969796;28;20854;-56
2023/05/10 10:19:21;;;;;;;4.30;0.90;;;17.00;99.90;;;;;;4970008;28;20816;-56
2023/05/10 10:21:51;;;;;;;5.85;0.95;;;17.10;99.90;;;;;;4970133;28;20400;-56
2023/05/10 10:24:16;;;;;;;4.32;0.63;;;16.90;99.90;;;;;;4970361;28;20769;-56
2023/05/10 10:26:43;;;;;;;4.32;0.73;;;16.70;99.90;;;;;;4970500;28;20414;-55
2023/05/10 10:29:51;;;;;;;4.20;0.65;;;16.70;99.90;;;;;;4972323;28;20495;-55
2023/05/10 10:32:27;;;;;;;4.30;0.70;;;16.90;82.90;;;;;;4974165;28;20466;-56
2023/05/10 10:34:55;;;;;;;4.30;0.82;;;17.40;95.10;;;;;;4973497;28;20730;-56
2023/05/10 10:37:21;;;;;;;4.30;0.80;;;17.70;54.70;;;;;;4973471;28;20475;-56
2023/05/10 10:39:49;;;;;;;5.10;0.80;;;17.50;46.60;;;;;;4973136;28;20475;-55
2023/05/10 10:42:43;;;;;;;4.78;0.77;;;17.20;67.40;;;;;;4973086;28;20432;-56
2023/05/10 10:45:13;;;;;;;4.30;0.70;;;17.10;54.40;;;;;;4973202;28;20392;-55
2023/05/10 10:47:38;;;;;;;4.20;0.60;;;16.90;76.50;;;;;;4973327;28;20384;-56
2023/05/10 10:50:06;;;;;;;4.85;0.75;;;17.00;52.50;;;;;;4972624;28;20387;-56
2023/05/10 10:52:35;;;;;;;5.30;0.70;;;16.80;87.10;;;;;;4973738;28;20407;-55
2023/05/10 10:55:09;;;;;;;4.30;0.75;;;16.90;99.90;;;;;;4972743;28;20392;-56
2023/05/10 10:57:43;;;;;;;4.60;0.80;;;17.20;99.90;;;;;;4973142;28;20884;-55
2023/05/10 11:00:28;;;;;;;5.30;0.70;;;17.20;17.10;;;;;;4972483;28;20409;-55
2023/05/10 11:02:59;;;;;;;4.80;0.80;;;17.00;5.20;;;;;;4972577;28;20384;-56
2023/05/10 11:05:39;;;;;;;5.13;1.00;;;16.90;20.50;;;;;;4972751;28;20412;-56
2023/05/10 11:08:16;;;;;;;4.80;0.88;;;16.90;1.00;;;;;;4972949;28;20388;-56
2023/05/10 11:10:59;;;;;;;4.60;0.80;;;17.20;1.00;;;;;;4972968;28;20388;-56
2023/05/10 11:13:37;;;;;;;5.70;1.00;;;17.70;1.00;;;;;;4968558;28;20864;-56
2023/05/10 11:16:17;;;;;;;4.60;0.90;;;18.10;1.00;;;;;;4952679;29;20401;-56
2023/05/10 11:18:53;;;;;;;4.60;0.90;;;18.30;1.00;;;;;;4953488;29;20405;-56
2023/05/10 11:21:19;;;;;;;4.38;0.70;;;18.40;1.00;;;;;;4953383;29;20394;-56
2023/05/10 11:23:56;;;;;;;4.73;1.00;;;18.00;1.00;;;;;;4953475;29;20447;-56
2023/05/10 11:26:26;;;;;;;4.45;0.80;;;18.30;1.00;;;;;;4953536;29;20493;-56
2023/05/10 11:28:58;;;;;;;5.30;1.15;;;18.50;1.00;;;;;;4952921;29;20408;-56
2023/05/10 11:31:26;;;;;;;4.50;0.70;;;18.10;1.00;;;;;;4953707;29;20394;-56
2023/05/10 11:33:56;;;;;;;4.53;0.93;;;18.20;1.00;;;;;;4952499;29;20405;-56
2023/05/10 11:36:28;;;;;;;5.80;0.90;;;18.30;1.00;;;;;;4953460;29;20816;-55
2023/05/10 11:38:56;;;;;;;5.70;1.10;;;18.20;1.00;;;;;;4952291;28;20386;-56
2023/05/10 11:41:23;;;;;;;4.78;0.80;;;18.20;1.00;;;;;;4952913;29;20437;-55
2023/05/10 11:43:55;;;;;;;4.78;0.80;;;17.90;1.00;;;;;;4953250;29;20476;-56
2023/05/10 11:46:26;;;;;;;5.53;1.20;;;17.60;1.00;;;;;;4953062;29;20421;-56
2023/05/10 11:48:54;;;;;;;4.90;1.00;;;17.50;1.00;;;;;;4952364;29;20536;-56
2023/05/10 11:51:24;;;;;;;5.40;1.20;;;17.50;1.00;;;;;;4952583;29;20462;-55
2023/05/10 11:53:52;;;;;;;5.90;1.20;;;17.50;1.00;;;;;;4952624;29;20394;-56
2023/05/10 11:56:18;;;;;;;5.10;1.00;;;17.70;1.00;;;;;;4952694;29;20386;-55
2023/05/10 11:58:44;;;;;;;6.47;1.30;;;17.80;1.00;;;;;;4952795;29;20394;-56
2023/05/10 12:01:10;;;;;;;4.80;0.98;;;17.70;1.00;;;;;;4952316;29;20413;-56
2023/05/10 12:03:37;;;;;;;5.30;1.33;;;17.60;1.00;;;;;;4953184;29;20481;-55
2023/05/10 12:06:03;;;;;;;7.78;1.30;;;17.50;1.00;;;;;;4952437;29;20425;-55
2023/05/10 12:08:30;;;;;;;6.20;1.00;;;17.50;1.00;;;;;;4952725;29;20386;-56
2023/05/10 12:11:17;;;;;;;5.00;0.80;;;17.40;1.00;;;;;;4951769;29;20393;-55
2023/05/10 12:13:47;;;;;;;5.32;1.00;;;17.00;1.00;;;;;;4959668;28;20380;-55
2023/05/10 12:16:24;;;;;;;4.95;0.80;;;16.90;1.00;;;;;;4971176;28;20387;-55
2023/05/10 12:18:51;;;;;;;5.40;0.95;;;16.70;1.00;;;;;;4971696;28;20403;-57
2023/05/10 12:21:19;;;;;;;4.50;0.83;;;16.80;1.00;;;;;;4971782;28;20487;-56
2023/05/10 12:23:46;;;;;;;7.30;0.80;;;16.90;1.00;;;;;;4971596;28;20649;-55
2023/05/10 12:26:12;;;;;;;6.35;1.10;;;16.70;1.00;;;;;;4970822;28;20411;-55
2023/05/10 12:28:41;;;;;;;4.72;0.90;;;16.60;1.00;;;;;;4971304;28;20388;-55
2023/05/10 12:31:07;;;;;;;5.35;0.90;;;16.60;1.00;;;;;;4970826;28;20423;-55
2023/05/10 12:33:42;;;;;;;5.40;0.90;;;16.70;1.00;;;;;;4971597;28;20396;-55
2023/05/10 12:36:09;;;;;;;4.80;0.90;;;16.90;1.00;;;;;;4970312;28;20423;-55
2023/05/10 12:38:42;;;;;;;5.10;0.88;;;17.10;1.00;;;;;;4971681;28;20400;-55
2023/05/10 12:41:13;;;;;;;5.07;1.08;;;17.10;1.00;;;;;;4970635;28;20392;-55
2023/05/10 12:43:39;;;;;;;7.72;1.30;;;17.40;1.00;;;;;;4971458;28;20384;-55
2023/05/10 12:46:12;;;;;;;5.60;0.90;;;17.50;1.00;;;;;;4970439;28;20421;-55
2023/05/10 12:48:39;;;;;;;4.72;0.80;;;17.50;1.00;;;;;;4971131;28;20395;-55
2023/05/10 12:51:09;;;;;;;4.93;1.10;;;17.60;1.00;;;;;;4969589;28;20388;-55
2023/05/10 12:53:35;;;;;;;4.77;1.00;;;17.70;1.00;;;;;;4971228;28;20527;-55
2023/05/10 12:56:00;;;;;;;4.60;0.70;;;17.60;1.00;;;;;;4970386;28;20487;-56
2023/05/10 12:58:26;;;;;;;4.30;0.70;;;17.70;1.00;;;;;;4971525;28;20470;-55